Decoded Metar for VGHS ( in ) (IATA:) | Meteo·Mobile Aviation Weather
aviador You're here:

VGHS Decoded Metar

in
Report Time2019-10-19 23:00:00
UTC Time2019-10-19 23:16:41
Flight Rules ifr IFR
Wind330° at 03 kt
W.Decomp.*RWY 32: 3.0 kt HW 0.5 kt RCW
Visibility3500 m
Phenomena:Haze
Clouds:N/A
Expected CloudBase > 1,200 ft AGL from Temp-Dew spread
CeilingNone
Temp27°C
Dew Point24°C (84% RH)
Heat Index30.1°C
QNH1013 hPa
Raw Report
METAR VGHS 192300Z 33003KT 3500 HZ NSC 27/24 Q1013 NOSIG=

Extra information for VGHS:More info

Social comments